createdAt,value
2022-12-31T00:03:53.340Z,6.02
2022-12-31T00:19:01.900Z,6.11
2022-12-31T00:34:06.233Z,6.16
2022-12-31T00:49:09.674Z,6.27
2022-12-31T01:04:17.288Z,6.43
2022-12-31T01:23:00.280Z,6.45
2022-12-31T01:38:03.622Z,6.48
2022-12-31T01:53:10.532Z,6.50
2022-12-31T02:08:14.326Z,6.57
2022-12-31T02:23:30.140Z,6.65
2022-12-31T02:38:39.163Z,6.70
2022-12-31T02:54:04.779Z,6.83
2022-12-31T03:09:13.871Z,7.15
2022-12-31T03:24:35.559Z,7.30
2022-12-31T03:39:38.772Z,7.54
2022-12-31T03:54:42.083Z,7.81
2022-12-31T04:09:45.175Z,7.91
2022-12-31T04:24:48.508Z,7.85
2022-12-31T04:39:51.630Z,7.59
2022-12-31T04:54:54.913Z,7.58
2022-12-31T05:09:58.039Z,7.72
2022-12-31T05:25:01.529Z,7.83
2022-12-31T05:40:05.542Z,8.01
2022-12-31T05:55:09.194Z,8.21
2022-12-31T06:10:12.379Z,8.33
2022-12-31T06:25:15.764Z,8.45
2022-12-31T06:40:18.938Z,8.49
2022-12-31T06:55:22.434Z,8.57
2022-12-31T07:10:54.017Z,8.80
2022-12-31T07:26:25.329Z,8.95
2022-12-31T07:41:53.173Z,9.08
2022-12-31T07:56:56.698Z,9.24
2022-12-31T08:14:48.819Z,9.53
2022-12-31T08:30:21.332Z,9.71
2022-12-31T08:49:02.062Z,10.23
2022-12-31T09:04:13.281Z,10.37
2022-12-31T09:19:16.726Z,10.58
2022-12-31T09:34:26.157Z,10.67
2022-12-31T09:49:32.120Z,10.70
2022-12-31T10:04:50.628Z,10.54
2022-12-31T10:20:13.588Z,10.60
2022-12-31T10:35:36.345Z,10.61
2022-12-31T10:50:45.573Z,10.66
2022-12-31T11:06:26.516Z,10.76
2022-12-31T11:22:06.867Z,10.65
2022-12-31T11:37:25.261Z,10.58
2022-12-31T11:52:50.423Z,10.71
2022-12-31T12:07:54.730Z,10.82
2022-12-31T12:23:00.454Z,11.02
2022-12-31T12:38:06.923Z,11.26
2022-12-31T12:53:47.788Z,11.73
2022-12-31T13:09:10.297Z,12.00
2022-12-31T13:24:25.936Z,12.24
2022-12-31T13:39:33.747Z,12.58
2022-12-31T13:54:40.356Z,12.81
2022-12-31T14:09:43.681Z,13.14
2022-12-31T14:24:50.833Z,13.32
2022-12-31T14:40:41.632Z,13.60
2022-12-31T14:55:48.889Z,13.86
2022-12-31T15:10:57.283Z,14.06
2022-12-31T15:26:02.038Z,14.17
2022-12-31T15:41:20.511Z,14.12
2022-12-31T15:56:33.290Z,14.14
2022-12-31T16:11:42.141Z,14.27
2022-12-31T16:27:00.364Z,14.38
2022-12-31T16:42:21.996Z,14.43
2022-12-31T16:57:29.286Z,14.50
2022-12-31T17:12:53.063Z,14.28
2022-12-31T17:28:04.507Z,14.27
2022-12-31T17:43:07.932Z,14.19
2022-12-31T17:58:18.814Z,14.00
2022-12-31T18:13:27.385Z,14.17
2022-12-31T18:28:30.692Z,14.26
2022-12-31T18:43:33.993Z,14.17
2022-12-31T18:58:37.228Z,14.11
2022-12-31T19:13:40.802Z,14.01
2022-12-31T19:28:45.169Z,13.91
2022-12-31T19:43:49.891Z,14.06
2022-12-31T19:58:53.401Z,14.12
2022-12-31T20:13:56.604Z,14.20
2022-12-31T20:28:59.753Z,14.47
2022-12-31T20:44:03.014Z,14.55
2022-12-31T20:59:08.622Z,14.61
2022-12-31T21:14:11.795Z,14.82
2022-12-31T21:29:15.108Z,14.97
2022-12-31T21:44:23.472Z,15.20
2022-12-31T21:59:46.634Z,15.27
2022-12-31T22:15:14.403Z,15.29
2022-12-31T22:30:13.379Z,15.41
2022-12-31T22:45:16.627Z,15.83
2022-12-31T23:00:19.956Z,16.46
2022-12-31T23:15:41.537Z,16.81
2022-12-31T23:30:45.623Z,16.88
2022-12-31T23:45:50.753Z,16.94
